createdAt,value
2018-03-20T00:00:15.666Z,17.23
2018-03-20T00:02:42.112Z,20.02
2018-03-20T00:05:09.267Z,15.50
2018-03-20T00:07:36.437Z,12.40
2018-03-20T00:10:03.733Z,11.02
2018-03-20T00:12:30.880Z,10.48
2018-03-20T00:14:57.452Z,11.02
2018-03-20T00:17:24.591Z,12.10
2018-03-20T00:19:50.978Z,10.75
2018-03-20T00:22:18.131Z,11.73
2018-03-20T00:24:44.566Z,11.00
2018-03-20T00:27:11.735Z,9.88
2018-03-20T00:29:38.184Z,10.32
2018-03-20T00:32:04.610Z,10.48
2018-03-20T00:34:31.014Z,9.80
2018-03-20T00:36:59.057Z,10.55
2018-03-20T00:39:25.477Z,11.10
2018-03-20T00:41:51.897Z,9.55
2018-03-20T00:44:18.415Z,11.20
2018-03-20T00:46:45.687Z,10.68
2018-03-20T00:49:12.840Z,10.48
2018-03-20T00:51:39.316Z,10.40
2018-03-20T00:54:06.482Z,9.80
2018-03-20T00:56:33.670Z,10.38
2018-03-20T00:59:00.091Z,10.35
2018-03-20T01:01:26.523Z,11.35
2018-03-20T01:03:52.923Z,9.35
2018-03-20T01:06:20.098Z,10.60
2018-03-20T01:08:47.269Z,10.43
2018-03-20T01:11:14.489Z,10.70
2018-03-20T01:13:40.887Z,10.45
2018-03-20T01:16:08.036Z,11.05
2018-03-20T01:18:36.944Z,10.18
2018-03-20T01:21:04.118Z,10.55
2018-03-20T01:23:30.547Z,10.82
2018-03-20T01:25:56.964Z,10.55
2018-03-20T01:28:24.239Z,10.18
2018-03-20T01:30:51.414Z,9.45
2018-03-20T01:33:17.855Z,10.07
2018-03-20T01:35:45.024Z,10.45
2018-03-20T01:38:12.146Z,9.60
2018-03-20T01:40:38.580Z,9.65
2018-03-20T01:43:05.004Z,9.75
2018-03-20T01:45:31.580Z,10.23
2018-03-20T01:47:58.857Z,8.93
2018-03-20T01:50:26.019Z,9.35
2018-03-20T01:53:05.371Z,9.60
2018-03-20T01:55:32.508Z,10.30
2018-03-20T01:57:58.998Z,9.65
2018-03-20T02:00:26.182Z,9.40
2018-03-20T02:02:52.556Z,9.55
2018-03-20T02:05:18.966Z,10.65
2018-03-20T02:07:46.255Z,9.90
2018-03-20T02:10:13.448Z,9.75
2018-03-20T02:12:39.877Z,9.93
2018-03-20T02:15:07.027Z,11.00
2018-03-20T02:17:34.205Z,14.45
2018-03-20T02:20:01.172Z,14.98
2018-03-20T02:22:28.822Z,17.52
2018-03-20T02:24:55.214Z,14.63
2018-03-20T02:27:21.604Z,14.98
2018-03-20T02:29:48.012Z,18.77
2018-03-20T02:32:15.898Z,17.80
2018-03-20T02:34:43.070Z,20.02
2018-03-20T02:37:10.214Z,17.20
2018-03-20T02:39:36.623Z,13.65
2018-03-20T02:42:03.831Z,11.65
2018-03-20T02:44:30.264Z,11.05
2018-03-20T02:46:56.680Z,10.25
2018-03-20T02:49:24.576Z,10.88
2018-03-20T02:51:50.983Z,10.80
2018-03-20T02:54:17.517Z,9.70
2018-03-20T02:56:44.696Z,10.32
2018-03-20T02:59:11.130Z,9.50
2018-03-20T03:01:38.309Z,11.30
2018-03-20T03:04:05.452Z,12.68
2018-03-20T03:06:31.876Z,12.93
2018-03-20T03:08:58.401Z,12.07
2018-03-20T03:11:24.802Z,10.65
2018-03-20T03:13:51.204Z,10.63
2018-03-20T03:16:18.343Z,10.27
2018-03-20T03:18:44.765Z,10.65
2018-03-20T03:21:11.234Z,11.95
2018-03-20T03:23:37.646Z,10.60
2018-03-20T03:26:04.802Z,10.73
2018-03-20T03:28:31.230Z,14.40
2018-03-20T03:30:57.743Z,18.10
2018-03-20T03:33:24.662Z,14.68
2018-03-20T03:35:51.232Z,14.50
2018-03-20T03:38:19.113Z,14.90
2018-03-20T03:40:46.309Z,13.45
2018-03-20T03:43:13.469Z,15.40
2018-03-20T03:45:39.889Z,13.73
2018-03-20T03:48:07.913Z,12.80
2018-03-20T03:50:34.317Z,11.32
2018-03-20T03:53:00.724Z,11.52
2018-03-20T03:55:27.877Z,12.30
2018-03-20T03:57:54.285Z,14.60
2018-03-20T04:00:20.713Z,14.10
2018-03-20T04:02:47.127Z,16.30
2018-03-20T04:05:13.648Z,15.18
2018-03-20T04:07:40.100Z,12.02
2018-03-20T04:10:07.286Z,11.45
2018-03-20T04:12:33.714Z,12.30
2018-03-20T04:15:00.987Z,12.88
2018-03-20T04:17:27.390Z,12.77
2018-03-20T04:19:53.835Z,15.85
2018-03-20T04:22:20.239Z,17.20
2018-03-20T04:24:48.172Z,15.68
2018-03-20T04:27:14.577Z,14.40
2018-03-20T04:29:40.975Z,13.40
2018-03-20T04:32:07.412Z,13.50
2018-03-20T04:34:34.560Z,12.63
2018-03-20T04:37:00.979Z,11.93
2018-03-20T04:39:27.405Z,11.65
2018-03-20T04:41:54.543Z,12.77
2018-03-20T04:44:20.914Z,12.55
2018-03-20T04:46:47.389Z,12.23
2018-03-20T04:49:14.533Z,13.20
2018-03-20T04:51:40.959Z,13.88
2018-03-20T04:54:07.400Z,13.05
2018-03-20T04:56:33.804Z,12.23
2018-03-20T04:59:00.228Z,11.23
2018-03-20T05:01:26.637Z,12.23
2018-03-20T05:03:53.818Z,11.07
2018-03-20T05:06:20.983Z,11.40
2018-03-20T05:08:47.399Z,12.13
2018-03-20T05:11:18.201Z,11.05
2018-03-20T05:13:44.645Z,10.95
2018-03-20T05:16:11.920Z,11.52
2018-03-20T05:18:39.962Z,11.80
2018-03-20T05:21:10.296Z,11.98
2018-03-20T05:23:39.585Z,10.40
2018-03-20T05:26:06.059Z,12.10
2018-03-20T05:28:32.598Z,11.77
2018-03-20T05:30:59.051Z,13.10
2018-03-20T05:33:25.533Z,13.73
2018-03-20T05:35:52.020Z,33.25
2018-03-20T05:38:18.541Z,22.75
2018-03-20T05:40:45.018Z,16.30
2018-03-20T05:43:12.182Z,13.95
2018-03-20T05:45:38.660Z,14.50
2018-03-20T05:48:11.071Z,20.00
2018-03-20T05:50:53.295Z,19.70
2018-03-20T05:53:20.502Z,17.55
2018-03-20T05:55:47.027Z,21.98
2018-03-20T05:58:14.173Z,22.15
2018-03-20T06:00:40.568Z,22.65
2018-03-20T06:03:06.968Z,20.30
2018-03-20T06:05:34.052Z,18.77
2018-03-20T06:08:00.487Z,16.45
2018-03-20T06:10:26.942Z,16.15
2018-03-20T06:12:53.385Z,13.90
2018-03-20T06:15:19.782Z,12.52
2018-03-20T06:17:46.207Z,13.77
2018-03-20T06:20:12.695Z,13.18
2018-03-20T06:22:39.129Z,12.20
2018-03-20T06:25:05.596Z,11.95
2018-03-20T06:27:32.906Z,11.40
2018-03-20T06:30:00.097Z,12.10
2018-03-20T06:32:26.645Z,12.30
2018-03-20T06:34:53.151Z,14.50
2018-03-20T06:37:19.577Z,24.08
2018-03-20T06:39:46.018Z,13.18
2018-03-20T06:42:12.418Z,13.65
2018-03-20T06:44:38.836Z,12.65
2018-03-20T06:47:05.248Z,14.05
2018-03-20T06:49:31.644Z,17.40
2018-03-20T06:51:58.070Z,23.15
2018-03-20T06:54:25.263Z,15.02
2018-03-20T06:56:51.695Z,18.05
2018-03-20T06:59:18.109Z,17.98
2018-03-20T07:01:44.641Z,14.13
2018-03-20T07:04:11.030Z,17.47
2018-03-20T07:06:37.456Z,15.13
2018-03-20T07:09:04.091Z,16.00
2018-03-20T07:11:30.650Z,13.73
2018-03-20T07:13:57.053Z,13.77
2018-03-20T07:16:23.481Z,14.60
2018-03-20T07:18:50.020Z,18.67
2018-03-20T07:21:17.196Z,13.40
2018-03-20T07:23:43.747Z,18.83
2018-03-20T07:26:11.021Z,31.47
2018-03-20T07:28:37.440Z,56.63
2018-03-20T07:31:04.580Z,42.27
2018-03-20T07:33:31.106Z,13.60
2018-03-20T07:35:58.277Z,69.80
2018-03-20T07:38:25.432Z,19.53
2018-03-20T07:40:51.863Z,15.07
2018-03-20T07:43:18.291Z,53.20
2018-03-20T07:45:44.682Z,15.50
2018-03-20T07:48:11.105Z,17.73
2018-03-20T07:50:38.116Z,32.37
2018-03-20T07:53:05.252Z,12.43
2018-03-20T07:55:31.695Z,13.50
2018-03-20T07:57:58.167Z,16.53
2018-03-20T08:00:24.584Z,13.87
2018-03-20T08:02:51.724Z,17.13
2018-03-20T08:05:18.195Z,18.07
2018-03-20T08:07:45.483Z,16.90
2018-03-20T08:10:12.654Z,13.83
2018-03-20T08:12:39.846Z,15.80
2018-03-20T08:15:06.265Z,12.53
2018-03-20T08:17:32.739Z,12.10
2018-03-20T08:20:00.526Z,12.03
2018-03-20T08:22:26.951Z,12.43
2018-03-20T08:24:53.387Z,12.23
2018-03-20T08:27:20.415Z,13.80
2018-03-20T08:29:46.858Z,11.90
2018-03-20T08:32:13.298Z,18.92
2018-03-20T08:34:40.441Z,14.68
2018-03-20T08:37:06.840Z,11.50
2018-03-20T08:39:33.994Z,13.50
2018-03-20T08:42:01.147Z,14.00
2018-03-20T08:44:27.557Z,13.88
2018-03-20T08:46:53.953Z,12.27
2018-03-20T08:49:20.455Z,13.07
2018-03-20T08:51:46.916Z,12.90
2018-03-20T08:54:13.354Z,14.85
2018-03-20T08:56:40.567Z,13.30
2018-03-20T08:59:07.098Z,11.20
2018-03-20T09:01:34.285Z,12.77
2018-03-20T09:04:00.737Z,10.75
2018-03-20T09:06:27.874Z,27.15
2018-03-20T09:08:56.161Z,16.90
2018-03-20T09:11:22.652Z,11.98
2018-03-20T09:13:49.797Z,11.50
2018-03-20T09:16:16.270Z,12.45
2018-03-20T09:18:43.464Z,11.70
2018-03-20T09:21:09.862Z,13.30
2018-03-20T09:23:36.320Z,11.80
2018-03-20T09:26:02.825Z,15.63
2018-03-20T09:28:30.007Z,14.10
2018-03-20T09:30:56.399Z,13.05
2018-03-20T09:33:22.869Z,12.07
2018-03-20T09:35:49.464Z,12.95
2018-03-20T09:38:16.576Z,13.13
2018-03-20T09:40:43.004Z,13.05
2018-03-20T09:43:09.430Z,10.63
2018-03-20T09:45:36.578Z,12.60
2018-03-20T09:48:03.015Z,12.43
2018-03-20T09:50:29.439Z,10.77
2018-03-20T09:52:56.191Z,11.30
2018-03-20T09:55:23.349Z,16.20
2018-03-20T09:57:50.530Z,11.52
2018-03-20T10:00:17.683Z,10.55
2018-03-20T10:02:44.864Z,10.13
2018-03-20T10:05:11.293Z,10.82
2018-03-20T10:07:37.745Z,10.13
2018-03-20T10:10:04.152Z,10.30
2018-03-20T10:12:31.318Z,8.65
2018-03-20T10:14:58.491Z,8.60
2018-03-20T10:17:24.960Z,9.52
2018-03-20T10:19:51.396Z,9.07
2018-03-20T10:22:18.549Z,13.65
2018-03-20T10:24:44.984Z,8.27
2018-03-20T10:27:11.388Z,7.93
2018-03-20T10:29:38.577Z,7.87
2018-03-20T10:32:05.063Z,7.53
2018-03-20T10:34:31.581Z,7.70
2018-03-20T10:36:58.051Z,8.02
2018-03-20T10:39:24.500Z,7.80
2018-03-20T10:41:50.912Z,7.68
2018-03-20T10:44:17.429Z,8.18
2018-03-20T10:46:43.902Z,8.75
2018-03-20T10:49:10.339Z,7.70
2018-03-20T10:51:36.741Z,7.32
2018-03-20T10:54:04.146Z,7.80
2018-03-20T10:56:31.419Z,9.88
2018-03-20T10:58:58.585Z,7.70
2018-03-20T11:01:31.291Z,9.02
2018-03-20T11:03:57.778Z,9.68
2018-03-20T11:06:24.214Z,7.90
2018-03-20T11:08:50.746Z,16.05
2018-03-20T11:11:18.452Z,9.13
2018-03-20T11:13:44.898Z,9.65
2018-03-20T11:16:12.171Z,10.10
2018-03-20T11:18:39.974Z,8.75
2018-03-20T11:21:06.455Z,8.38
2018-03-20T11:23:32.907Z,8.35
2018-03-20T11:25:59.320Z,11.10
2018-03-20T11:28:26.486Z,8.73
2018-03-20T11:30:53.672Z,8.25
2018-03-20T11:33:21.372Z,8.50
2018-03-20T11:35:48.040Z,7.18
2018-03-20T11:38:14.480Z,5.87
2018-03-20T11:40:40.896Z,6.62
2018-03-20T11:43:07.793Z,7.25
2018-03-20T11:45:34.257Z,7.45
2018-03-20T11:48:00.809Z,8.93
2018-03-20T11:50:28.388Z,7.87
2018-03-20T11:52:54.848Z,7.95
2018-03-20T11:55:22.018Z,7.55
2018-03-20T11:57:49.166Z,7.22
2018-03-20T12:00:15.633Z,7.15
2018-03-20T12:02:42.796Z,7.30
2018-03-20T12:05:09.249Z,7.15
2018-03-20T12:07:42.565Z,8.13
2018-03-20T12:10:09.702Z,7.65
2018-03-20T12:12:36.153Z,9.45
2018-03-20T12:15:02.674Z,7.65
2018-03-20T12:17:29.100Z,7.45
2018-03-20T12:19:55.538Z,9.10
2018-03-20T12:22:22.001Z,7.87
2018-03-20T12:24:48.558Z,8.20
2018-03-20T12:27:14.977Z,7.10
2018-03-20T12:29:41.465Z,8.32
2018-03-20T12:32:07.963Z,8.10
2018-03-20T12:34:35.760Z,9.02
2018-03-20T12:37:02.308Z,8.15
2018-03-20T12:39:29.452Z,8.10
2018-03-20T12:41:55.880Z,9.63
2018-03-20T12:44:22.327Z,8.88
2018-03-20T12:46:48.738Z,8.77
2018-03-20T12:49:15.189Z,9.15
2018-03-20T12:51:42.353Z,8.20
2018-03-20T12:54:08.973Z,8.70
2018-03-20T12:56:35.383Z,9.43
2018-03-20T12:59:02.765Z,8.85
2018-03-20T13:01:29.979Z,9.13
2018-03-20T13:03:56.412Z,9.05
2018-03-20T13:06:22.856Z,9.32
2018-03-20T13:08:49.282Z,9.80
2018-03-20T13:11:15.704Z,8.07
2018-03-20T13:13:42.105Z,9.55
2018-03-20T13:16:09.391Z,9.48
2018-03-20T13:18:36.553Z,9.43
2018-03-20T13:21:03.952Z,10.50
2018-03-20T13:23:30.890Z,16.77
2018-03-20T13:25:58.061Z,11.00
2018-03-20T13:28:24.637Z,14.10
2018-03-20T13:30:51.807Z,12.00
2018-03-20T13:33:18.976Z,14.13
2018-03-20T13:35:46.123Z,13.23
2018-03-20T13:38:12.580Z,11.75
2018-03-20T13:40:39.100Z,11.90
2018-03-20T13:43:05.756Z,13.62
2018-03-20T13:45:32.494Z,11.55
2018-03-20T13:47:59.664Z,11.07
2018-03-20T13:50:26.867Z,12.90
2018-03-20T13:52:53.278Z,12.90
2018-03-20T13:55:20.509Z,12.35
2018-03-20T13:57:46.978Z,11.50
2018-03-20T14:00:13.467Z,15.05
2018-03-20T14:02:40.651Z,12.25
2018-03-20T14:05:07.926Z,11.05
2018-03-20T14:07:35.111Z,12.13
2018-03-20T14:10:01.657Z,12.20
2018-03-20T14:12:28.624Z,11.18
2018-03-20T14:14:55.091Z,14.85
2018-03-20T14:17:21.743Z,13.62
2018-03-20T14:19:48.898Z,14.70
2018-03-20T14:22:16.187Z,13.25
2018-03-20T14:24:43.353Z,15.45
2018-03-20T14:27:10.517Z,14.20
2018-03-20T14:29:37.686Z,13.32
2018-03-20T14:32:05.054Z,11.25
2018-03-20T14:34:31.649Z,11.52
2018-03-20T14:36:58.103Z,12.60
2018-03-20T14:39:24.862Z,12.02
2018-03-20T14:41:51.296Z,12.90
2018-03-20T14:44:18.526Z,12.52
2018-03-20T14:46:44.933Z,17.83
2018-03-20T14:49:12.116Z,12.75
2018-03-20T14:51:39.314Z,12.35
2018-03-20T14:54:05.735Z,11.80
2018-03-20T14:56:32.235Z,12.68
2018-03-20T14:58:58.758Z,12.85
2018-03-20T15:01:25.204Z,16.00
2018-03-20T15:03:52.384Z,16.08
2018-03-20T15:06:20.207Z,14.27
2018-03-20T15:08:46.652Z,15.93
2018-03-20T15:11:14.909Z,17.25
2018-03-20T15:13:42.510Z,16.98
2018-03-20T15:16:10.640Z,16.05
2018-03-20T15:18:37.673Z,30.25
2018-03-20T15:21:04.178Z,28.27
2018-03-20T15:23:30.643Z,27.23
2018-03-20T15:25:57.120Z,22.35
2018-03-20T15:28:23.549Z,23.73
2018-03-20T15:30:50.012Z,30.58
2018-03-20T15:33:16.459Z,22.55
2018-03-20T15:35:42.936Z,24.12
2018-03-20T15:38:09.364Z,23.20
2018-03-20T15:40:35.816Z,24.00
2018-03-20T15:43:02.247Z,26.25
2018-03-20T15:45:28.655Z,23.87
2018-03-20T15:47:55.109Z,23.45
2018-03-20T15:50:22.314Z,26.65
2018-03-20T15:52:49.547Z,27.45
2018-03-20T15:55:15.987Z,28.55
2018-03-20T15:57:43.190Z,28.65
2018-03-20T16:00:09.778Z,24.75
2018-03-20T16:02:36.277Z,24.98
2018-03-20T16:05:02.772Z,25.42
2018-03-20T16:07:29.944Z,24.85
2018-03-20T16:09:57.097Z,27.93
2018-03-20T16:12:27.073Z,26.58
2018-03-20T16:14:54.215Z,25.40
2018-03-20T16:17:20.657Z,26.73
2018-03-20T16:19:47.083Z,25.62
2018-03-20T16:22:13.509Z,26.65
2018-03-20T16:24:40.934Z,29.60
2018-03-20T16:27:07.339Z,29.35
2018-03-20T16:29:34.585Z,30.45
2018-03-20T16:32:01.046Z,31.15
2018-03-20T16:34:28.211Z,30.58
2018-03-20T16:36:54.704Z,31.85
2018-03-20T16:39:21.853Z,34.60
2018-03-20T16:41:49.022Z,32.80
2018-03-20T16:44:15.456Z,38.55
2018-03-20T16:46:41.837Z,40.35
2018-03-20T16:49:08.237Z,37.97
2018-03-20T16:51:34.637Z,40.35
2018-03-20T16:54:01.077Z,45.03
2018-03-20T16:56:27.644Z,33.50
2018-03-20T16:58:54.853Z,29.33
2018-03-20T17:01:22.030Z,32.08
2018-03-20T17:03:49.200Z,71.93
2018-03-20T17:06:16.381Z,31.58
2018-03-20T17:08:42.841Z,26.20
2018-03-20T17:11:09.295Z,25.60
2018-03-20T17:13:35.707Z,23.65
2018-03-20T17:16:02.179Z,27.10
2018-03-20T17:18:29.386Z,25.05
2018-03-20T17:20:55.869Z,25.27
2018-03-20T17:23:22.617Z,24.63
2018-03-20T17:25:49.452Z,25.12
2018-03-20T17:28:16.727Z,25.95
2018-03-20T17:30:44.041Z,24.70
2018-03-20T17:33:10.608Z,29.87
2018-03-20T17:35:37.101Z,43.78
2018-03-20T17:38:04.393Z,31.85
2018-03-20T17:40:31.576Z,62.72
2018-03-20T17:42:58.532Z,105.82
2018-03-20T17:45:25.013Z,50.90
2018-03-20T17:47:51.992Z,59.17
2018-03-20T17:50:18.397Z,42.13
2018-03-20T17:52:44.805Z,31.35
2018-03-20T17:55:11.267Z,45.60
2018-03-20T17:57:38.418Z,38.58
2018-03-20T18:00:06.794Z,30.62
2018-03-20T18:02:34.891Z,31.60
2018-03-20T18:05:02.464Z,25.05
2018-03-20T18:07:28.866Z,26.45
2018-03-20T18:09:55.485Z,23.75
2018-03-20T18:12:24.442Z,23.00
2018-03-20T18:14:51.157Z,21.15
2018-03-20T18:17:18.739Z,22.45
2018-03-20T18:19:45.399Z,22.80
2018-03-20T18:22:13.534Z,22.25
2018-03-20T18:24:39.981Z,23.85
2018-03-20T18:27:06.445Z,45.08
2018-03-20T18:29:32.892Z,48.42
2018-03-20T18:31:59.350Z,30.70
2018-03-20T18:34:25.792Z,40.60
2018-03-20T18:36:52.234Z,33.13
2018-03-20T18:39:19.412Z,41.72
2018-03-20T18:41:46.071Z,45.67
2018-03-20T18:44:13.175Z,35.22
2018-03-20T18:46:40.258Z,24.65
2018-03-20T18:49:07.590Z,24.73
2018-03-20T18:51:34.445Z,26.65
2018-03-20T18:54:01.731Z,29.75
2018-03-20T18:56:28.177Z,37.33
2018-03-20T18:58:55.555Z,27.55
2018-03-20T19:01:21.978Z,24.50
2018-03-20T19:03:48.791Z,26.58
2018-03-20T19:06:15.432Z,24.67
2018-03-20T19:08:42.707Z,23.33
2018-03-20T19:11:10.647Z,24.92
2018-03-20T19:13:37.157Z,26.65
2018-03-20T19:16:03.710Z,23.95
2018-03-20T19:18:30.380Z,23.83
2018-03-20T19:21:01.401Z,23.90
2018-03-20T19:23:28.651Z,25.23
2018-03-20T19:25:55.732Z,24.35
2018-03-20T19:28:22.144Z,24.83
2018-03-20T19:30:48.628Z,27.40
2018-03-20T19:33:15.044Z,25.95
2018-03-20T19:35:42.316Z,23.65
2018-03-20T19:38:08.796Z,24.35
2018-03-20T19:40:35.263Z,25.80
2018-03-20T19:43:01.723Z,25.15
2018-03-20T19:45:28.213Z,24.42
2018-03-20T19:47:54.711Z,25.25
2018-03-20T19:50:21.265Z,24.70
2018-03-20T19:52:47.852Z,23.60
2018-03-20T19:55:14.329Z,51.03
2018-03-20T19:57:40.790Z,24.33
2018-03-20T20:00:08.122Z,24.40
2018-03-20T20:02:34.531Z,23.62
2018-03-20T20:05:00.977Z,28.87
2018-03-20T20:07:27.421Z,20.27
2018-03-20T20:09:53.877Z,21.48
2018-03-20T20:12:20.595Z,36.70
2018-03-20T20:14:47.867Z,19.73
2018-03-20T20:17:15.560Z,18.62
2018-03-20T20:19:42.042Z,25.08
2018-03-20T20:22:08.566Z,17.85
2018-03-20T20:24:35.029Z,16.73
2018-03-20T20:27:01.523Z,15.60
2018-03-20T20:29:27.985Z,15.48
2018-03-20T20:31:55.720Z,15.40
2018-03-20T20:34:22.277Z,14.75
2018-03-20T20:36:49.459Z,16.50
2018-03-20T20:39:15.891Z,14.02
2018-03-20T20:41:43.098Z,15.10
2018-03-20T20:44:09.513Z,12.52
2018-03-20T20:46:35.991Z,13.77
2018-03-20T20:49:02.525Z,12.98
2018-03-20T20:51:28.950Z,13.48
2018-03-20T20:53:55.407Z,11.63
2018-03-20T20:56:22.651Z,13.10
2018-03-20T20:58:49.100Z,12.37
2018-03-20T21:01:15.599Z,14.65
2018-03-20T21:03:43.000Z,13.68
2018-03-20T21:06:09.491Z,13.73
2018-03-20T21:08:35.943Z,13.32
2018-03-20T21:11:02.405Z,13.10
2018-03-20T21:13:28.955Z,12.45
2018-03-20T21:15:55.614Z,10.63
2018-03-20T21:18:22.276Z,12.07
2018-03-20T21:20:49.450Z,9.43
2018-03-20T21:23:16.764Z,9.73
2018-03-20T21:25:43.214Z,10.60
2018-03-20T21:28:09.645Z,11.00
2018-03-20T21:30:36.132Z,9.80
2018-03-20T21:33:03.064Z,10.25
2018-03-20T21:35:29.586Z,9.70
2018-03-20T21:37:56.083Z,9.52
2018-03-20T21:40:22.733Z,10.10
2018-03-20T21:42:50.590Z,9.57
2018-03-20T21:45:17.004Z,9.95
2018-03-20T21:47:43.776Z,9.25
2018-03-20T21:50:11.728Z,9.10
2018-03-20T21:52:38.697Z,8.70
2018-03-20T21:55:06.074Z,9.27
2018-03-20T21:57:32.630Z,9.18
2018-03-20T21:59:59.856Z,10.95
2018-03-20T22:02:26.363Z,8.85
2018-03-20T22:04:53.636Z,8.85
2018-03-20T22:07:20.915Z,7.35
2018-03-20T22:09:47.352Z,7.30
2018-03-20T22:12:14.574Z,8.25
2018-03-20T22:14:40.971Z,7.30
2018-03-20T22:17:07.413Z,6.35
2018-03-20T22:19:33.895Z,6.32
2018-03-20T22:22:01.067Z,5.53
2018-03-20T22:24:28.296Z,5.60
2018-03-20T22:26:56.156Z,4.82
2018-03-20T22:29:22.594Z,5.10
2018-03-20T22:31:49.806Z,4.30
2018-03-20T22:34:16.246Z,5.32
2018-03-20T22:36:42.737Z,5.07
2018-03-20T22:39:09.139Z,6.30
2018-03-20T22:41:36.350Z,5.30
2018-03-20T22:44:02.853Z,5.28
2018-03-20T22:46:30.042Z,5.87
2018-03-20T22:48:56.527Z,4.97
2018-03-20T22:51:22.967Z,5.75
2018-03-20T22:53:49.513Z,5.47
2018-03-20T22:56:16.068Z,5.22
2018-03-20T22:58:43.253Z,5.20
2018-03-20T23:01:09.763Z,5.85
2018-03-20T23:03:36.259Z,5.50
2018-03-20T23:06:03.424Z,5.30
2018-03-20T23:08:30.611Z,5.50
2018-03-20T23:10:57.057Z,6.30
2018-03-20T23:13:24.234Z,6.00
2018-03-20T23:15:50.686Z,6.37
2018-03-20T23:18:17.166Z,6.75
2018-03-20T23:20:43.703Z,7.20
2018-03-20T23:23:10.923Z,5.75
2018-03-20T23:25:37.413Z,5.95
2018-03-20T23:28:04.614Z,6.55
2018-03-20T23:30:31.149Z,6.60
2018-03-20T23:32:58.380Z,6.32
2018-03-20T23:35:24.835Z,6.45
2018-03-20T23:37:51.267Z,6.12
2018-03-20T23:40:17.679Z,5.85
2018-03-20T23:42:45.635Z,6.20
2018-03-20T23:45:12.043Z,6.50
2018-03-20T23:47:39.704Z,6.37
2018-03-20T23:50:06.296Z,6.07
2018-03-20T23:52:32.850Z,7.97
2018-03-20T23:54:59.296Z,5.60
2018-03-20T23:57:26.456Z,6.80
2018-03-20T23:59:52.876Z,6.43
